Pagina principală
METAR-TAF:

METAR-TAF

Aeroporturi :

Mesquite, Texas, Statele Unite ale Americii

Latitudine: 32-44-49N, longitudine: 096-31-49W, elevație: 136 m

Observații meteo curente

Raportul a fost făcut în urmă cu 1 oră și 2 de minute, la 21:50 UTC
Vânt 4 kt de la Sud
Temperatură 36°C
Umiditate 35%
Presiune 1015 hPa
Vizibilitate: 16.1 km
Nori împrăștiați la o înălțime de 5000 picior

METAR: KHQZ 222150Z 17004KT 10SM SCT050 36/18 A2998

Ora: 17:52 (22:52 UTC)


TAF: lipsă

Observații și prognoze meteo pentru peste 4.000 de aeroporturi (rapoarte METAR și TAF).

Stațiile disponibile sunt reprezentate pe hartă prin puncte galbene și roșii.

Țineți indicatorul mouse-ului pe punctul dorit pentru a vedea denumirea stației.

Apoi, faceți clic pentru a vedea observațiile și prognozele meteorologice.

Pentru a schimba harta: Pentru mărire, faceți clic pe butoanele verzi cu cruce neagră; pentru micșorare, pe butonul verde cu o liniuță; pentru hărți învecinate, pe săgețile verzi.


METAR-TAF: